sensor_id;sensor_type;location;lat;lon;timestamp;P1;durP1;ratioP1;P2;durP2;ratioP2
25962;SDS011;13760;52.588;13.406;2022-07-04T00:02:11;3.20;;;2.00;;
25962;SDS011;13760;52.588;13.406;2022-07-04T00:04:36;4.40;;;2.17;;
25962;SDS011;13760;52.588;13.406;2022-07-04T00:07:02;5.30;;;1.95;;
25962;SDS011;13760;52.588;13.406;2022-07-04T00:09:27;6.70;;;2.08;;
25962;SDS011;13760;52.588;13.406;2022-07-04T00:11:53;2.05;;;1.90;;
25962;SDS011;13760;52.588;13.406;2022-07-04T00:14:19;7.55;;;1.95;;
25962;SDS011;13760;52.588;13.406;2022-07-04T00:16:44;3.72;;;2.00;;
25962;SDS011;13760;52.588;13.406;2022-07-04T00:19:10;3.25;;;1.80;;
25962;SDS011;13760;52.588;13.406;2022-07-04T00:21:35;3.97;;;1.90;;
25962;SDS011;13760;52.588;13.406;2022-07-04T00:24:01;3.10;;;1.70;;
25962;SDS011;13760;52.588;13.406;2022-07-04T00:26:26;5.05;;;2.08;;
25962;SDS011;13760;52.588;13.406;2022-07-04T00:28:52;3.88;;;2.22;;
25962;SDS011;13760;52.588;13.406;2022-07-04T00:31:18;2.17;;;1.98;;
25962;SDS011;13760;52.588;13.406;2022-07-04T00:33:44;4.75;;;1.90;;
25962;SDS011;13760;52.588;13.406;2022-07-04T00:36:09;6.85;;;2.03;;
25962;SDS011;13760;52.588;13.406;2022-07-04T00:38:35;2.67;;;1.80;;
25962;SDS011;13760;52.588;13.406;2022-07-04T00:41:00;4.15;;;1.70;;
25962;SDS011;13760;52.588;13.406;2022-07-04T00:43:27;4.68;;;1.70;;
25962;SDS011;13760;52.588;13.406;2022-07-04T00:45:53;2.85;;;1.88;;
25962;SDS011;13760;52.588;13.406;2022-07-04T00:48:19;3.50;;;1.70;;
25962;SDS011;13760;52.588;13.406;2022-07-04T00:50:45;4.22;;;2.00;;
25962;SDS011;13760;52.588;13.406;2022-07-04T00:53:12;4.43;;;2.10;;
25962;SDS011;13760;52.588;13.406;2022-07-04T00:55:43;2.25;;;1.80;;
25962;SDS011;13760;52.588;13.406;2022-07-04T00:58:09;3.38;;;1.98;;
25962;SDS011;13760;52.588;13.406;2022-07-04T01:00:37;6.80;;;2.05;;
25962;SDS011;13760;52.588;13.406;2022-07-04T01:03:03;4.05;;;1.83;;
25962;SDS011;13760;52.588;13.406;2022-07-04T01:05:28;5.28;;;2.10;;
25962;SDS011;13760;52.588;13.406;2022-07-04T01:07:54;3.30;;;2.00;;
25962;SDS011;13760;52.588;13.406;2022-07-04T01:10:20;3.03;;;2.10;;
25962;SDS011;13760;52.588;13.406;2022-07-04T01:12:46;4.60;;;2.17;;
25962;SDS011;13760;52.588;13.406;2022-07-04T01:15:11;4.57;;;1.90;;
25962;SDS011;13760;52.588;13.406;2022-07-04T01:17:37;3.38;;;2.10;;
25962;SDS011;13760;52.588;13.406;2022-07-04T01:20:03;3.05;;;2.30;;
25962;SDS011;13760;52.588;13.406;2022-07-04T01:22:29;3.45;;;2.13;;
25962;SDS011;13760;52.588;13.406;2022-07-04T01:24:55;4.10;;;2.20;;
25962;SDS011;13760;52.588;13.406;2022-07-04T01:27:21;3.53;;;2.38;;
25962;SDS011;13760;52.588;13.406;2022-07-04T01:29:49;2.40;;;2.17;;
25962;SDS011;13760;52.588;13.406;2022-07-04T01:32:15;5.82;;;1.90;;
25962;SDS011;13760;52.588;13.406;2022-07-04T01:34:40;2.88;;;1.92;;
25962;SDS011;13760;52.588;13.406;2022-07-04T01:37:06;3.10;;;2.15;;
25962;SDS011;13760;52.588;13.406;2022-07-04T01:39:32;2.95;;;2.13;;
25962;SDS011;13760;52.588;13.406;2022-07-04T01:41:57;4.43;;;2.30;;
25962;SDS011;13760;52.588;13.406;2022-07-04T01:44:23;3.00;;;2.00;;
25962;SDS011;13760;52.588;13.406;2022-07-04T01:46:48;4.63;;;2.30;;
25962;SDS011;13760;52.588;13.406;2022-07-04T01:49:14;2.28;;;2.08;;
25962;SDS011;13760;52.588;13.406;2022-07-04T01:51:46;3.83;;;2.40;;
25962;SDS011;13760;52.588;13.406;2022-07-04T01:54:13;2.70;;;1.98;;
25962;SDS011;13760;52.588;13.406;2022-07-04T01:56:39;3.13;;;2.40;;
25962;SDS011;13760;52.588;13.406;2022-07-04T01:59:05;4.80;;;2.58;;
25962;SDS011;13760;52.588;13.406;2022-07-04T02:04:53;5.05;;;2.42;;
25962;SDS011;13760;52.588;13.406;2022-07-04T02:07:19;2.88;;;2.47;;
25962;SDS011;13760;52.588;13.406;2022-07-04T02:09:44;3.58;;;2.70;;
25962;SDS011;13760;52.588;13.406;2022-07-04T02:12:10;5.25;;;2.70;;
25962;SDS011;13760;52.588;13.406;2022-07-04T02:14:54;4.40;;;2.83;;
25962;SDS011;13760;52.588;13.406;2022-07-04T02:17:20;4.03;;;3.20;;
25962;SDS011;13760;52.588;13.406;2022-07-04T02:19:46;4.60;;;3.45;;
25962;SDS011;13760;52.588;13.406;2022-07-04T02:22:13;4.10;;;3.70;;
25962;SDS011;13760;52.588;13.406;2022-07-04T02:24:39;4.63;;;3.90;;
25962;SDS011;13760;52.588;13.406;2022-07-04T02:27:05;5.55;;;4.13;;
25962;SDS011;13760;52.588;13.406;2022-07-04T02:29:30;6.30;;;4.43;;
25962;SDS011;13760;52.588;13.406;2022-07-04T02:31:56;7.35;;;5.03;;
25962;SDS011;13760;52.588;13.406;2022-07-04T02:34:23;6.72;;;5.50;;
25962;SDS011;13760;52.588;13.406;2022-07-04T02:36:48;7.82;;;5.25;;
25962;SDS011;13760;52.588;13.406;2022-07-04T02:39:14;6.93;;;5.20;;
25962;SDS011;13760;52.588;13.406;2022-07-04T02:41:40;9.70;;;5.60;;
25962;SDS011;13760;52.588;13.406;2022-07-04T02:44:06;6.72;;;6.18;;
25962;SDS011;13760;52.588;13.406;2022-07-04T02:46:31;8.23;;;6.40;;
25962;SDS011;13760;52.588;13.406;2022-07-04T02:48:58;7.13;;;6.30;;
25962;SDS011;13760;52.588;13.406;2022-07-04T02:51:28;8.13;;;6.20;;
25962;SDS011;13760;52.588;13.406;2022-07-04T02:53:54;9.43;;;6.07;;
25962;SDS011;13760;52.588;13.406;2022-07-04T02:56:20;7.03;;;6.07;;
25962;SDS011;13760;52.588;13.406;2022-07-04T02:58:46;11.48;;;6.63;;
25962;SDS011;13760;52.588;13.406;2022-07-04T03:01:12;7.72;;;6.95;;
25962;SDS011;13760;52.588;13.406;2022-07-04T03:03:41;8.80;;;6.97;;
25962;SDS011;13760;52.588;13.406;2022-07-04T03:06:07;7.85;;;7.05;;
25962;SDS011;13760;52.588;13.406;2022-07-04T03:08:34;8.40;;;6.93;;
25962;SDS011;13760;52.588;13.406;2022-07-04T03:10:59;8.68;;;7.43;;
25962;SDS011;13760;52.588;13.406;2022-07-04T03:13:25;7.95;;;6.55;;
25962;SDS011;13760;52.588;13.406;2022-07-04T03:19:13;10.38;;;7.22;;
25962;SDS011;13760;52.588;13.406;2022-07-04T03:21:42;7.45;;;6.57;;
25962;SDS011;13760;52.588;13.406;2022-07-04T03:24:08;8.57;;;7.00;;
25962;SDS011;13760;52.588;13.406;2022-07-04T03:26:34;8.02;;;7.18;;
25962;SDS011;13760;52.588;13.406;2022-07-04T03:29:00;9.38;;;6.95;;
25962;SDS011;13760;52.588;13.406;2022-07-04T03:31:29;9.15;;;6.88;;
25962;SDS011;13760;52.588;13.406;2022-07-04T03:33:57;8.15;;;6.18;;
25962;SDS011;13760;52.588;13.406;2022-07-04T03:36:25;9.15;;;6.20;;
25962;SDS011;13760;52.588;13.406;2022-07-04T03:38:50;12.43;;;6.40;;
25962;SDS011;13760;52.588;13.406;2022-07-04T03:41:22;7.47;;;6.70;;
25962;SDS011;13760;52.588;13.406;2022-07-04T03:43:48;7.88;;;6.50;;
25962;SDS011;13760;52.588;13.406;2022-07-04T03:46:14;8.10;;;6.35;;
25962;SDS011;13760;52.588;13.406;2022-07-04T03:48:39;9.35;;;6.47;;
25962;SDS011;13760;52.588;13.406;2022-07-04T03:51:09;7.90;;;6.50;;
25962;SDS011;13760;52.588;13.406;2022-07-04T03:53:38;9.77;;;7.20;;
25962;SDS011;13760;52.588;13.406;2022-07-04T03:56:07;8.80;;;7.03;;
25962;SDS011;13760;52.588;13.406;2022-07-04T03:58:33;9.93;;;6.88;;
25962;SDS011;13760;52.588;13.406;2022-07-04T04:00:59;10.48;;;6.60;;
25962;SDS011;13760;52.588;13.406;2022-07-04T04:03:25;7.70;;;6.65;;
25962;SDS011;13760;52.588;13.406;2022-07-04T04:06:12;9.73;;;6.82;;
25962;SDS011;13760;52.588;13.406;2022-07-04T04:08:40;8.40;;;7.57;;
25962;SDS011;13760;52.588;13.406;2022-07-04T04:11:11;9.48;;;7.13;;
25962;SDS011;13760;52.588;13.406;2022-07-04T04:13:37;8.48;;;7.57;;
25962;SDS011;13760;52.588;13.406;2022-07-04T04:16:12;10.73;;;7.00;;
25962;SDS011;13760;52.588;13.406;2022-07-04T04:18:47;8.88;;;6.57;;
25962;SDS011;13760;52.588;13.406;2022-07-04T04:21:13;7.95;;;7.25;;
25962;SDS011;13760;52.588;13.406;2022-07-04T04:23:41;7.90;;;7.10;;
25962;SDS011;13760;52.588;13.406;2022-07-04T04:26:06;11.75;;;8.05;;
25962;SDS011;13760;52.588;13.406;2022-07-04T04:28:37;10.00;;;7.80;;
25962;SDS011;13760;52.588;13.406;2022-07-04T04:31:05;8.77;;;7.30;;
25962;SDS011;13760;52.588;13.406;2022-07-04T04:33:31;9.43;;;7.78;;
25962;SDS011;13760;52.588;13.406;2022-07-04T04:35:57;10.38;;;7.18;;
25962;SDS011;13760;52.588;13.406;2022-07-04T04:38:22;10.65;;;7.45;;
25962;SDS011;13760;52.588;13.406;2022-07-04T04:40:48;8.65;;;7.22;;
25962;SDS011;13760;52.588;13.406;2022-07-04T04:43:14;8.93;;;6.82;;
25962;SDS011;13760;52.588;13.406;2022-07-04T04:45:39;8.50;;;7.53;;
25962;SDS011;13760;52.588;13.406;2022-07-04T04:48:08;7.93;;;6.68;;
25962;SDS011;13760;52.588;13.406;2022-07-04T04:50:34;9.90;;;6.60;;
25962;SDS011;13760;52.588;13.406;2022-07-04T04:53:03;7.18;;;6.38;;
25962;SDS011;13760;52.588;13.406;2022-07-04T04:55:28;8.32;;;6.32;;
25962;SDS011;13760;52.588;13.406;2022-07-04T04:57:54;8.30;;;6.30;;
25962;SDS011;13760;52.588;13.406;2022-07-04T05:00:20;7.97;;;6.22;;
25962;SDS011;13760;52.588;13.406;2022-07-04T05:02:48;6.97;;;6.10;;
25962;SDS011;13760;52.588;13.406;2022-07-04T05:05:14;9.40;;;5.97;;
25962;SDS011;13760;52.588;13.406;2022-07-04T05:07:43;6.85;;;5.68;;
25962;SDS011;13760;52.588;13.406;2022-07-04T05:10:18;7.00;;;5.30;;
25962;SDS011;13760;52.588;13.406;2022-07-04T05:12:44;6.55;;;5.25;;
25962;SDS011;13760;52.588;13.406;2022-07-04T05:15:12;6.03;;;4.85;;
25962;SDS011;13760;52.588;13.406;2022-07-04T05:17:38;7.32;;;4.28;;
25962;SDS011;13760;52.588;13.406;2022-07-04T05:20:03;6.22;;;4.38;;
25962;SDS011;13760;52.588;13.406;2022-07-04T05:22:29;6.60;;;4.60;;
25962;SDS011;13760;52.588;13.406;2022-07-04T05:24:55;9.13;;;4.70;;
25962;SDS011;13760;52.588;13.406;2022-07-04T05:27:21;9.18;;;3.95;;
25962;SDS011;13760;52.588;13.406;2022-07-04T05:29:46;7.95;;;4.53;;
25962;SDS011;13760;52.588;13.406;2022-07-04T05:32:12;4.97;;;3.70;;
25962;SDS011;13760;52.588;13.406;2022-07-04T05:34:38;6.45;;;3.92;;
25962;SDS011;13760;52.588;13.406;2022-07-04T05:37:03;6.28;;;3.70;;
25962;SDS011;13760;52.588;13.406;2022-07-04T05:39:29;8.23;;;3.78;;
25962;SDS011;13760;52.588;13.406;2022-07-04T05:41:55;5.60;;;3.40;;
25962;SDS011;13760;52.588;13.406;2022-07-04T05:44:21;8.75;;;3.65;;
25962;SDS011;13760;52.588;13.406;2022-07-04T05:46:46;9.13;;;3.38;;
25962;SDS011;13760;52.588;13.406;2022-07-04T05:49:14;5.43;;;3.65;;
25962;SDS011;13760;52.588;13.406;2022-07-04T05:51:40;6.63;;;3.08;;
25962;SDS011;13760;52.588;13.406;2022-07-04T05:54:11;4.85;;;3.28;;
25962;SDS011;13760;52.588;13.406;2022-07-04T05:56:37;5.90;;;3.00;;
25962;SDS011;13760;52.588;13.406;2022-07-04T05:59:04;12.15;;;2.80;;
25962;SDS011;13760;52.588;13.406;2022-07-04T06:01:30;6.53;;;2.70;;
25962;SDS011;13760;52.588;13.406;2022-07-04T06:03:55;4.20;;;2.50;;
25962;SDS011;13760;52.588;13.406;2022-07-04T06:06:21;9.90;;;2.97;;
25962;SDS011;13760;52.588;13.406;2022-07-04T06:08:46;4.88;;;2.38;;
25962;SDS011;13760;52.588;13.406;2022-07-04T06:11:12;5.97;;;1.95;;
25962;SDS011;13760;52.588;13.406;2022-07-04T06:13:39;2.25;;;1.83;;
25962;SDS011;13760;52.588;13.406;2022-07-04T06:16:05;5.53;;;1.90;;
25962;SDS011;13760;52.588;13.406;2022-07-04T06:18:30;6.45;;;2.03;;
25962;SDS011;13760;52.588;13.406;2022-07-04T06:20:56;5.68;;;2.00;;
25962;SDS011;13760;52.588;13.406;2022-07-04T06:23:22;6.57;;;2.03;;
25962;SDS011;13760;52.588;13.406;2022-07-04T06:25:47;2.00;;;1.30;;
25962;SDS011;13760;52.588;13.406;2022-07-04T06:28:13;5.18;;;1.20;;
25962;SDS011;13760;52.588;13.406;2022-07-04T06:30:39;2.95;;;1.10;;
25962;SDS011;13760;52.588;13.406;2022-07-04T06:33:04;2.30;;;1.00;;
25962;SDS011;13760;52.588;13.406;2022-07-04T06:35:30;5.38;;;1.00;;
25962;SDS011;13760;52.588;13.406;2022-07-04T06:38:15;6.32;;;1.10;;
25962;SDS011;13760;52.588;13.406;2022-07-04T06:40:42;5.22;;;1.05;;
25962;SDS011;13760;52.588;13.406;2022-07-04T06:43:08;2.78;;;0.95;;
25962;SDS011;13760;52.588;13.406;2022-07-04T06:45:34;4.68;;;1.27;;
25962;SDS011;13760;52.588;13.406;2022-07-04T06:48:00;2.78;;;1.13;;
25962;SDS011;13760;52.588;13.406;2022-07-04T06:50:29;1.63;;;0.93;;
25962;SDS011;13760;52.588;13.406;2022-07-04T06:53:02;1.77;;;0.70;;
25962;SDS011;13760;52.588;13.406;2022-07-04T06:55:29;2.10;;;0.70;;
25962;SDS011;13760;52.588;13.406;2022-07-04T06:57:54;1.17;;;0.65;;
25962;SDS011;13760;52.588;13.406;2022-07-04T07:00:20;3.75;;;0.90;;
25962;SDS011;13760;52.588;13.406;2022-07-04T07:02:46;2.85;;;0.70;;
25962;SDS011;13760;52.588;13.406;2022-07-04T07:05:11;5.00;;;0.90;;
25962;SDS011;13760;52.588;13.406;2022-07-04T07:07:37;2.50;;;0.80;;
25962;SDS011;13760;52.588;13.406;2022-07-04T07:10:03;3.42;;;0.88;;
25962;SDS011;13760;52.588;13.406;2022-07-04T07:12:31;3.97;;;0.77;;
25962;SDS011;13760;52.588;13.406;2022-07-04T07:14:58;1.60;;;0.85;;
25962;SDS011;13760;52.588;13.406;2022-07-04T07:17:24;2.55;;;0.80;;
25962;SDS011;13760;52.588;13.406;2022-07-04T07:19:50;4.47;;;1.08;;
25962;SDS011;13760;52.588;13.406;2022-07-04T07:22:15;3.80;;;0.80;;
25962;SDS011;13760;52.588;13.406;2022-07-04T07:24:41;3.20;;;0.80;;
25962;SDS011;13760;52.588;13.406;2022-07-04T07:27:08;2.58;;;1.00;;
25962;SDS011;13760;52.588;13.406;2022-07-04T07:29:34;1.55;;;0.73;;
25962;SDS011;13760;52.588;13.406;2022-07-04T07:32:00;3.15;;;1.10;;
25962;SDS011;13760;52.588;13.406;2022-07-04T07:34:26;1.90;;;0.82;;
25962;SDS011;13760;52.588;13.406;2022-07-04T07:36:52;2.75;;;1.00;;
25962;SDS011;13760;52.588;13.406;2022-07-04T07:39:18;3.75;;;0.90;;
25962;SDS011;13760;52.588;13.406;2022-07-04T07:41:44;7.88;;;1.40;;
25962;SDS011;13760;52.588;13.406;2022-07-04T07:44:10;3.53;;;1.00;;
25962;SDS011;13760;52.588;13.406;2022-07-04T07:46:36;3.10;;;1.00;;
25962;SDS011;13760;52.588;13.406;2022-07-04T07:49:01;4.63;;;1.10;;
25962;SDS011;13760;52.588;13.406;2022-07-04T07:51:28;3.22;;;0.90;;
25962;SDS011;13760;52.588;13.406;2022-07-04T07:53:53;4.43;;;0.90;;
25962;SDS011;13760;52.588;13.406;2022-07-04T07:56:19;5.55;;;0.95;;
25962;SDS011;13760;52.588;13.406;2022-07-04T07:58:45;6.07;;;1.10;;
25962;SDS011;13760;52.588;13.406;2022-07-04T08:01:10;5.00;;;1.08;;
25962;SDS011;13760;52.588;13.406;2022-07-04T08:03:36;3.28;;;1.00;;
25962;SDS011;13760;52.588;13.406;2022-07-04T08:06:20;4.70;;;1.17;;
25962;SDS011;13760;52.588;13.406;2022-07-04T08:08:45;5.78;;;1.00;;
25962;SDS011;13760;52.588;13.406;2022-07-04T08:11:11;4.30;;;1.10;;
25962;SDS011;13760;52.588;13.406;2022-07-04T08:13:37;1.77;;;0.90;;
25962;SDS011;13760;52.588;13.406;2022-07-04T08:16:03;5.78;;;1.00;;
25962;SDS011;13760;52.588;13.406;2022-07-04T08:18:30;2.83;;;0.90;;
25962;SDS011;13760;52.588;13.406;2022-07-04T08:20:56;2.70;;;0.90;;
25962;SDS011;13760;52.588;13.406;2022-07-04T08:23:21;1.75;;;0.80;;
25962;SDS011;13760;52.588;13.406;2022-07-04T08:25:47;2.63;;;0.80;;
25962;SDS011;13760;52.588;13.406;2022-07-04T08:28:12;4.03;;;0.70;;
25962;SDS011;13760;52.588;13.406;2022-07-04T08:30:38;3.58;;;0.90;;
25962;SDS011;13760;52.588;13.406;2022-07-04T08:33:03;1.95;;;0.70;;
25962;SDS011;13760;52.588;13.406;2022-07-04T08:35:29;4.35;;;0.90;;
25962;SDS011;13760;52.588;13.406;2022-07-04T08:37:54;5.00;;;1.00;;
25962;SDS011;13760;52.588;13.406;2022-07-04T08:40:27;7.75;;;1.00;;
25962;SDS011;13760;52.588;13.406;2022-07-04T08:42:55;7.78;;;1.08;;
25962;SDS011;13760;52.588;13.406;2022-07-04T08:45:28;3.20;;;0.98;;
25962;SDS011;13760;52.588;13.406;2022-07-04T08:47:59;1.50;;;0.80;;
25962;SDS011;13760;52.588;13.406;2022-07-04T08:50:33;5.88;;;0.80;;
25962;SDS011;13760;52.588;13.406;2022-07-04T08:53:06;2.97;;;0.80;;
25962;SDS011;13760;52.588;13.406;2022-07-04T08:55:37;5.00;;;0.93;;
25962;SDS011;13760;52.588;13.406;2022-07-04T08:58:23;2.38;;;0.95;;
25962;SDS011;13760;52.588;13.406;2022-07-04T09:01:02;4.65;;;1.10;;
25962;SDS011;13760;52.588;13.406;2022-07-04T09:03:50;5.78;;;1.05;;
25962;SDS011;13760;52.588;13.406;2022-07-04T09:06:16;3.38;;;1.30;;
25962;SDS011;13760;52.588;13.406;2022-07-04T09:08:41;3.60;;;0.90;;
25962;SDS011;13760;52.588;13.406;2022-07-04T09:11:07;2.83;;;0.80;;
25962;SDS011;13760;52.588;13.406;2022-07-04T09:13:33;4.18;;;0.90;;
25962;SDS011;13760;52.588;13.406;2022-07-04T09:16:02;1.48;;;0.80;;
25962;SDS011;13760;52.588;13.406;2022-07-04T09:20:56;5.93;;;1.08;;
25962;SDS011;13760;52.588;13.406;2022-07-04T09:23:29;2.22;;;0.90;;
25962;SDS011;13760;52.588;13.406;2022-07-04T09:26:06;3.75;;;0.90;;
25962;SDS011;13760;52.588;13.406;2022-07-04T09:28:50;3.88;;;0.90;;
25962;SDS011;13760;52.588;13.406;2022-07-04T09:31:20;2.60;;;1.00;;
25962;SDS011;13760;52.588;13.406;2022-07-04T09:33:54;2.83;;;0.80;;
25962;SDS011;13760;52.588;13.406;2022-07-04T09:36:23;2.85;;;1.02;;
25962;SDS011;13760;52.588;13.406;2022-07-04T09:39:09;5.15;;;1.10;;
25962;SDS011;13760;52.588;13.406;2022-07-04T09:42:01;5.13;;;0.90;;
25962;SDS011;13760;52.588;13.406;2022-07-04T09:44:29;3.60;;;1.08;;
25962;SDS011;13760;52.588;13.406;2022-07-04T09:47:29;6.70;;;1.20;;
25962;SDS011;13760;52.588;13.406;2022-07-04T09:50:08;1.67;;;0.98;;
25962;SDS011;13760;52.588;13.406;2022-07-04T09:55:11;1.02;;;0.57;;
25962;SDS011;13760;52.588;13.406;2022-07-04T09:57:37;3.17;;;0.80;;
25962;SDS011;13760;52.588;13.406;2022-07-04T10:00:15;2.58;;;0.85;;
25962;SDS011;13760;52.588;13.406;2022-07-04T10:02:45;2.70;;;0.70;;
25962;SDS011;13760;52.588;13.406;2022-07-04T10:05:11;1.75;;;0.82;;
25962;SDS011;13760;52.588;13.406;2022-07-04T10:07:40;3.97;;;0.93;;
25962;SDS011;13760;52.588;13.406;2022-07-04T10:12:52;3.13;;;0.80;;
25962;SDS011;13760;52.588;13.406;2022-07-04T10:15:19;4.55;;;1.00;;
25962;SDS011;13760;52.588;13.406;2022-07-04T10:17:46;3.53;;;0.82;;
25962;SDS011;13760;52.588;13.406;2022-07-04T10:20:12;3.70;;;0.65;;
25962;SDS011;13760;52.588;13.406;2022-07-04T10:22:38;4.45;;;0.90;;
25962;SDS011;13760;52.588;13.406;2022-07-04T10:25:05;1.88;;;0.50;;
25962;SDS011;13760;52.588;13.406;2022-07-04T10:27:32;1.00;;;0.65;;
25962;SDS011;13760;52.588;13.406;2022-07-04T10:29:58;6.28;;;0.73;;
25962;SDS011;13760;52.588;13.406;2022-07-04T10:32:34;3.03;;;0.90;;
25962;SDS011;13760;52.588;13.406;2022-07-04T10:35:01;4.60;;;0.73;;
25962;SDS011;13760;52.588;13.406;2022-07-04T10:40:46;4.82;;;1.20;;
25962;SDS011;13760;52.588;13.406;2022-07-04T10:48:49;2.28;;;0.77;;
25962;SDS011;13760;52.588;13.406;2022-07-04T10:51:31;2.95;;;0.90;;
25962;SDS011;13760;52.588;13.406;2022-07-04T10:53:58;6.05;;;1.25;;
25962;SDS011;13760;52.588;13.406;2022-07-04T10:59:18;4.00;;;0.85;;
25962;SDS011;13760;52.588;13.406;2022-07-04T11:04:47;2.25;;;0.90;;
25962;SDS011;13760;52.588;13.406;2022-07-04T11:17:51;4.10;;;0.85;;
25962;SDS011;13760;52.588;13.406;2022-07-04T11:20:20;4.00;;;1.10;;
25962;SDS011;13760;52.588;13.406;2022-07-04T11:22:47;5.68;;;1.23;;
25962;SDS011;13760;52.588;13.406;2022-07-04T11:25:13;3.45;;;0.75;;
25962;SDS011;13760;52.588;13.406;2022-07-04T11:27:39;4.57;;;0.90;;
25962;SDS011;13760;52.588;13.406;2022-07-04T11:30:05;1.63;;;0.98;;
25962;SDS011;13760;52.588;13.406;2022-07-04T11:32:32;1.67;;;0.80;;
25962;SDS011;13760;52.588;13.406;2022-07-04T11:34:59;2.85;;;1.00;;
25962;SDS011;13760;52.588;13.406;2022-07-04T11:37:26;1.83;;;0.82;;
25962;SDS011;13760;52.588;13.406;2022-07-04T11:39:55;3.78;;;0.80;;
25962;SDS011;13760;52.588;13.406;2022-07-04T11:42:40;2.42;;;0.85;;
25962;SDS011;13760;52.588;13.406;2022-07-04T11:45:44;1.67;;;0.90;;
25962;SDS011;13760;52.588;13.406;2022-07-04T11:48:10;3.20;;;0.80;;
25962;SDS011;13760;52.588;13.406;2022-07-04T11:50:35;4.13;;;1.05;;
25962;SDS011;13760;52.588;13.406;2022-07-04T11:53:01;1.83;;;0.80;;
25962;SDS011;13760;52.588;13.406;2022-07-04T11:55:29;2.47;;;0.70;;
25962;SDS011;13760;52.588;13.406;2022-07-04T11:57:56;2.00;;;0.60;;
25962;SDS011;13760;52.588;13.406;2022-07-04T12:00:25;1.70;;;0.60;;
25962;SDS011;13760;52.588;13.406;2022-07-04T12:02:52;2.80;;;0.90;;
25962;SDS011;13760;52.588;13.406;2022-07-04T12:05:23;3.88;;;0.90;;
25962;SDS011;13760;52.588;13.406;2022-07-04T12:07:48;3.53;;;0.82;;
25962;SDS011;13760;52.588;13.406;2022-07-04T12:12:53;3.03;;;0.75;;
25962;SDS011;13760;52.588;13.406;2022-07-04T12:15:21;4.28;;;0.95;;
25962;SDS011;13760;52.588;13.406;2022-07-04T12:17:52;1.90;;;0.70;;
25962;SDS011;13760;52.588;13.406;2022-07-04T12:20:20;4.38;;;0.80;;
25962;SDS011;13760;52.588;13.406;2022-07-04T12:22:50;1.67;;;0.60;;
25962;SDS011;13760;52.588;13.406;2022-07-04T12:30:33;1.42;;;0.50;;
25962;SDS011;13760;52.588;13.406;2022-07-04T12:33:04;2.67;;;0.80;;
25962;SDS011;13760;52.588;13.406;2022-07-04T12:40:49;1.58;;;0.52;;
25962;SDS011;13760;52.588;13.406;2022-07-04T12:43:17;2.83;;;0.80;;
25962;SDS011;13760;52.588;13.406;2022-07-04T12:45:44;1.58;;;0.70;;
25962;SDS011;13760;52.588;13.406;2022-07-04T12:48:16;5.22;;;0.77;;
25962;SDS011;13760;52.588;13.406;2022-07-04T12:50:43;2.65;;;0.60;;
25962;SDS011;13760;52.588;13.406;2022-07-04T12:53:09;1.63;;;0.60;;
25962;SDS011;13760;52.588;13.406;2022-07-04T12:55:37;4.57;;;0.80;;
25962;SDS011;13760;52.588;13.406;2022-07-04T12:58:04;3.42;;;0.90;;
25962;SDS011;13760;52.588;13.406;2022-07-04T13:00:29;2.75;;;0.70;;
25962;SDS011;13760;52.588;13.406;2022-07-04T13:02:55;2.00;;;0.68;;
25962;SDS011;13760;52.588;13.406;2022-07-04T13:05:20;1.48;;;0.70;;
25962;SDS011;13760;52.588;13.406;2022-07-04T13:07:46;5.07;;;0.80;;
25962;SDS011;13760;52.588;13.406;2022-07-04T13:10:12;4.30;;;0.63;;
25962;SDS011;13760;52.588;13.406;2022-07-04T13:12:38;3.33;;;0.70;;
25962;SDS011;13760;52.588;13.406;2022-07-04T13:15:03;3.33;;;0.80;;
25962;SDS011;13760;52.588;13.406;2022-07-04T13:17:30;0.95;;;0.73;;
25962;SDS011;13760;52.588;13.406;2022-07-04T13:19:56;2.80;;;0.98;;
25962;SDS011;13760;52.588;13.406;2022-07-04T13:22:22;1.83;;;0.90;;
25962;SDS011;13760;52.588;13.406;2022-07-04T13:24:49;5.25;;;0.80;;
25962;SDS011;13760;52.588;13.406;2022-07-04T13:27:16;2.13;;;0.70;;
25962;SDS011;13760;52.588;13.406;2022-07-04T13:29:42;3.60;;;0.65;;
25962;SDS011;13760;52.588;13.406;2022-07-04T13:32:08;3.10;;;0.60;;
25962;SDS011;13760;52.588;13.406;2022-07-04T13:34:34;4.95;;;1.00;;
25962;SDS011;13760;52.588;13.406;2022-07-04T13:37:00;3.47;;;0.60;;
25962;SDS011;13760;52.588;13.406;2022-07-04T13:39:26;3.95;;;0.90;;
25962;SDS011;13760;52.588;13.406;2022-07-04T13:41:52;2.33;;;0.70;;
25962;SDS011;13760;52.588;13.406;2022-07-04T13:44:17;4.03;;;0.77;;
25962;SDS011;13760;52.588;13.406;2022-07-04T13:46:43;1.75;;;0.70;;
25962;SDS011;13760;52.588;13.406;2022-07-04T13:49:09;2.95;;;0.77;;
25962;SDS011;13760;52.588;13.406;2022-07-04T13:51:35;2.97;;;0.70;;
25962;SDS011;13760;52.588;13.406;2022-07-04T13:54:01;7.35;;;0.88;;
25962;SDS011;13760;52.588;13.406;2022-07-04T13:56:27;3.83;;;0.80;;
25962;SDS011;13760;52.588;13.406;2022-07-04T13:58:53;1.45;;;0.60;;
25962;SDS011;13760;52.588;13.406;2022-07-04T14:01:18;1.88;;;0.60;;
25962;SDS011;13760;52.588;13.406;2022-07-04T14:03:45;2.03;;;0.90;;
25962;SDS011;13760;52.588;13.406;2022-07-04T14:06:11;4.82;;;0.80;;
25962;SDS011;13760;52.588;13.406;2022-07-04T14:08:38;2.85;;;0.73;;
25962;SDS011;13760;52.588;13.406;2022-07-04T14:11:03;1.65;;;0.63;;
25962;SDS011;13760;52.588;13.406;2022-07-04T14:13:29;2.70;;;0.77;;
25962;SDS011;13760;52.588;13.406;2022-07-04T14:15:55;3.38;;;0.60;;
25962;SDS011;13760;52.588;13.406;2022-07-04T14:18:21;0.85;;;0.65;;
25962;SDS011;13760;52.588;13.406;2022-07-04T14:20:46;1.08;;;0.50;;
25962;SDS011;13760;52.588;13.406;2022-07-04T14:23:14;2.10;;;0.60;;
25962;SDS011;13760;52.588;13.406;2022-07-04T14:26:00;1.30;;;0.52;;
25962;SDS011;13760;52.588;13.406;2022-07-04T14:28:25;1.60;;;0.60;;
25962;SDS011;13760;52.588;13.406;2022-07-04T14:30:51;1.70;;;0.65;;
25962;SDS011;13760;52.588;13.406;2022-07-04T14:33:16;2.50;;;0.50;;
25962;SDS011;13760;52.588;13.406;2022-07-04T14:35:42;5.68;;;0.98;;
25962;SDS011;13760;52.588;13.406;2022-07-04T14:38:08;1.63;;;0.70;;
25962;SDS011;13760;52.588;13.406;2022-07-04T14:40:36;1.42;;;0.70;;
25962;SDS011;13760;52.588;13.406;2022-07-04T14:43:04;2.53;;;0.70;;
25962;SDS011;13760;52.588;13.406;2022-07-04T14:45:30;2.53;;;0.90;;
25962;SDS011;13760;52.588;13.406;2022-07-04T14:47:55;1.13;;;0.60;;
25962;SDS011;13760;52.588;13.406;2022-07-04T14:50:21;4.78;;;0.73;;
25962;SDS011;13760;52.588;13.406;2022-07-04T14:52:46;1.48;;;0.70;;
25962;SDS011;13760;52.588;13.406;2022-07-04T14:55:12;3.40;;;0.75;;
25962;SDS011;13760;52.588;13.406;2022-07-04T14:57:37;4.45;;;0.70;;
25962;SDS011;13760;52.588;13.406;2022-07-04T15:00:03;1.77;;;0.80;;
25962;SDS011;13760;52.588;13.406;2022-07-04T15:02:31;1.05;;;0.68;;
25962;SDS011;13760;52.588;13.406;2022-07-04T15:04:56;1.35;;;0.75;;
25962;SDS011;13760;52.588;13.406;2022-07-04T15:07:22;4.82;;;0.90;;
25962;SDS011;13760;52.588;13.406;2022-07-04T15:09:47;1.20;;;0.70;;
25962;SDS011;13760;52.588;13.406;2022-07-04T15:12:13;2.67;;;0.85;;
25962;SDS011;13760;52.588;13.406;2022-07-04T15:14:38;3.25;;;0.90;;
25962;SDS011;13760;52.588;13.406;2022-07-04T15:17:04;2.05;;;0.70;;
25962;SDS011;13760;52.588;13.406;2022-07-04T15:19:29;2.85;;;0.73;;
25962;SDS011;13760;52.588;13.406;2022-07-04T15:21:55;2.17;;;0.90;;
25962;SDS011;13760;52.588;13.406;2022-07-04T15:24:39;2.85;;;0.80;;
25962;SDS011;13760;52.588;13.406;2022-07-04T15:27:05;1.77;;;0.65;;
25962;SDS011;13760;52.588;13.406;2022-07-04T15:29:30;2.47;;;0.80;;